Time;durP1;ratioP1;P1;durP2;ratioP2;P2;SDS_P1;SDS_P2;PMS_P1;PMS_P2;Temp;Humidity;BMP_temperature;BMP_pressure;BME280_temperature;BME280_humidity;BME280_pressure;Samples;Min_cycle;Max_cycle;Signal;HPM_P1;HPM_P2
2023/10/09 00:01:18;;;;;;;4.27;1.73;;;;;;;;;;6192496;28;20192;-68
2023/10/09 00:04:20;;;;;;;3.17;1.47;;;;;;;;;;6230396;28;20198;-68
2023/10/09 00:07:23;;;;;;;4.30;1.50;;;;;;;;;;6216419;28;20266;-68
2023/10/09 00:10:35;;;;;;;2.33;1.50;;;;;;;;;;6205304;28;20203;-68
2023/10/09 00:13:37;;;;;;;3.10;1.30;;;;;;;;;;6231005;28;20240;-68
2023/10/09 00:16:48;;;;;;;2.23;1.20;;;;;;;;;;6210763;28;20188;-68
2023/10/09 00:19:51;;;;;;;4.00;1.70;;;;;;;;;;6221659;28;20242;-68
2023/10/09 00:22:52;;;;;;;4.73;1.63;;;;;;;;;;6189748;28;20200;-68
2023/10/09 00:26:12;;;;;;;4.07;1.30;;;;;;;;;;6196469;28;20191;-68
2023/10/09 00:29:15;;;;;;;2.83;1.57;;;;;;;;;;6216048;28;20195;-68
2023/10/09 00:32:18;;;;;;;2.23;1.57;;;;;;;;;;6214610;28;20242;-68
2023/10/09 00:38:59;;;;;;;3.67;1.73;;;;;;;;;;6135961;28;20205;-68
2023/10/09 00:42:01;;;;;;;2.77;1.70;;;;;;;;;;6207419;28;20230;-68
2023/10/09 00:45:04;;;;;;;6.30;1.80;;;;;;;;;;6209595;28;20194;-68
2023/10/09 00:48:06;;;;;;;3.50;1.63;;;;;;;;;;6225679;28;20194;-68
2023/10/09 00:51:18;;;;;;;4.23;1.50;;;;;;;;;;6210680;28;20210;-68
2023/10/09 00:54:19;;;;;;;3.33;1.70;;;;;;;;;;6217602;28;20206;-68
2023/10/09 00:57:24;;;;;;;4.40;1.47;;;;;;;;;;6208636;28;20210;-68
2023/10/09 01:03:45;;;;;;;3.77;1.83;;;;;;;;;;6216742;28;20226;-68
2023/10/09 01:06:47;;;;;;;3.53;1.80;;;;;;;;;;6212864;28;20199;-68
2023/10/09 01:09:51;;;;;;;4.30;2.00;;;;;;;;;;6230141;28;20191;-68
2023/10/09 01:12:55;;;;;;;3.70;1.47;;;;;;;;;;6210766;28;20242;-68
2023/10/09 01:15:58;;;;;;;3.33;1.90;;;;;;;;;;6204038;28;20188;-68
2023/10/09 01:19:00;;;;;;;5.80;1.90;;;;;;;;;;6211750;28;20191;-68
2023/10/09 01:22:22;;;;;;;4.13;1.63;;;;;;;;;;6205788;28;20213;-68
2023/10/09 01:25:22;;;;;;;2.20;1.50;;;;;;;;;;6237921;28;20246;-68
2023/10/09 01:28:24;;;;;;;3.17;1.67;;;;;;;;;;6210357;28;20219;-68
2023/10/09 01:31:37;;;;;;;4.20;1.90;;;;;;;;;;6207558;28;20211;-68
2023/10/09 01:34:38;;;;;;;5.40;2.03;;;;;;;;;;6201095;28;20192;-68
2023/10/09 01:37:43;;;;;;;5.10;1.57;;;;;;;;;;6216507;28;20248;-68
2023/10/09 01:40:44;;;;;;;3.23;1.60;;;;;;;;;;6205240;28;20281;-68
2023/10/09 01:43:46;;;;;;;3.67;1.53;;;;;;;;;;6211369;28;20246;-68
2023/10/09 01:46:48;;;;;;;2.70;1.60;;;;;;;;;;6203456;28;20258;-68
2023/10/09 01:49:49;;;;;;;2.80;1.57;;;;;;;;;;6211735;28;20197;-68
2023/10/09 01:52:51;;;;;;;3.00;1.87;;;;;;;;;;6230558;28;20305;-68
2023/10/09 01:55:55;;;;;;;3.30;1.60;;;;;;;;;;6220866;28;20198;-68
2023/10/09 01:59:02;;;;;;;5.63;2.23;;;;;;;;;;6218043;28;20297;-68
2023/10/09 02:02:12;;;;;;;3.23;1.67;;;;;;;;;;6206214;28;20195;-68
2023/10/09 02:08:21;;;;;;;2.33;1.67;;;;;;;;;;6227590;28;20248;-68
2023/10/09 02:11:43;;;;;;;2.63;1.60;;;;;;;;;;6208866;28;20216;-68
2023/10/09 02:14:44;;;;;;;1.83;1.67;;;;;;;;;;6207166;28;20278;-68
2023/10/09 02:18:00;;;;;;;3.53;2.10;;;;;;;;;;6225334;28;20212;-68
2023/10/09 02:24:09;;;;;;;2.63;1.70;;;;;;;;;;6242138;28;20232;-68
2023/10/09 02:27:11;;;;;;;5.87;2.23;;;;;;;;;;6233675;28;20245;-68
2023/10/09 02:30:17;;;;;;;6.97;1.93;;;;;;;;;;6216450;28;20202;-68
2023/10/09 02:33:20;;;;;;;3.20;1.80;;;;;;;;;;6223830;28;20191;-68
2023/10/09 02:36:25;;;;;;;2.90;1.80;;;;;;;;;;6209357;28;20203;-68
2023/10/09 02:39:26;;;;;;;5.03;2.30;;;;;;;;;;6203407;28;20198;-68
2023/10/09 02:42:28;;;;;;;4.07;2.20;;;;;;;;;;6192815;28;20194;-68
2023/10/09 02:45:34;;;;;;;3.40;2.33;;;;;;;;;;6213596;28;20195;-68
2023/10/09 02:48:36;;;;;;;3.63;1.90;;;;;;;;;;6205168;28;20263;-68
2023/10/09 02:51:49;;;;;;;3.13;2.00;;;;;;;;;;6215422;28;20365;-68
2023/10/09 02:54:59;;;;;;;4.53;2.30;;;;;;;;;;6216690;28;20234;-68
2023/10/09 02:58:07;;;;;;;2.20;2.00;;;;;;;;;;6207932;28;20187;-68
2023/10/09 03:01:13;;;;;;;2.83;2.10;;;;;;;;;;6213624;28;20195;-68
2023/10/09 03:04:14;;;;;;;4.00;1.97;;;;;;;;;;6209807;28;20202;-69
2023/10/09 03:07:15;;;;;;;2.80;2.20;;;;;;;;;;6223152;28;20192;-67
2023/10/09 03:10:17;;;;;;;3.13;1.90;;;;;;;;;;6225429;28;20195;-67
2023/10/09 03:13:19;;;;;;;2.77;1.90;;;;;;;;;;6214524;28;20195;-67
2023/10/09 03:16:20;;;;;;;4.83;1.97;;;;;;;;;;6198817;28;20192;-67
2023/10/09 03:19:21;;;;;;;6.77;1.83;;;;;;;;;;6227570;28;20193;-67
2023/10/09 03:22:23;;;;;;;3.20;1.80;;;;;;;;;;6197440;28;20198;-67
2023/10/09 03:25:26;;;;;;;2.87;1.80;;;;;;;;;;6149076;28;1229904;-68
2023/10/09 03:28:28;;;;;;;4.33;1.70;;;;;;;;;;6208149;28;20226;-68
2023/10/09 03:31:30;;;;;;;5.33;1.70;;;;;;;;;;6201055;28;20216;-68
2023/10/09 03:34:31;;;;;;;5.17;2.07;;;;;;;;;;6225228;28;20178;-68
2023/10/09 03:37:35;;;;;;;2.93;2.00;;;;;;;;;;6209810;28;20183;-68
2023/10/09 03:40:39;;;;;;;3.47;1.60;;;;;;;;;;6208166;28;20216;-68
2023/10/09 03:43:43;;;;;;;3.80;2.00;;;;;;;;;;6206360;28;20195;-68
2023/10/09 03:46:44;;;;;;;3.47;1.97;;;;;;;;;;6216483;28;20195;-68
2023/10/09 03:49:45;;;;;;;3.87;1.87;;;;;;;;;;6209370;28;20199;-68
2023/10/09 03:52:46;;;;;;;3.67;1.77;;;;;;;;;;6205513;28;20270;-68
2023/10/09 03:55:47;;;;;;;2.30;1.70;;;;;;;;;;6207808;28;20202;-66
2023/10/09 03:58:49;;;;;;;2.00;1.70;;;;;;;;;;6217178;28;20186;-66
2023/10/09 04:01:52;;;;;;;3.20;1.90;;;;;;;;;;6206844;28;20192;-66
2023/10/09 04:04:53;;;;;;;2.83;1.97;;;;;;;;;;6214217;28;20187;-67
2023/10/09 04:07:58;;;;;;;4.53;1.73;;;;;;;;;;6206245;28;20201;-66
2023/10/09 04:11:03;;;;;;;2.10;1.90;;;;;;;;;;6211479;28;20237;-68
2023/10/09 04:14:10;;;;;;;3.37;1.93;;;;;;;;;;6201023;28;20199;-70
2023/10/09 04:23:35;;;;;;;4.60;1.90;;;;;;;;;;6222263;28;20248;-66
2023/10/09 04:26:37;;;;;;;2.43;1.67;;;;;;;;;;6215259;28;20237;-66
2023/10/09 04:29:46;;;;;;;3.33;1.83;;;;;;;;;;6203287;28;20233;-66
2023/10/09 04:32:49;;;;;;;3.65;2.00;;;;;;;;;;6198343;28;20740;-66
2023/10/09 04:36:12;;;;;;;1.93;1.70;;;;;;;;;;6209405;28;20650;-66
2023/10/09 04:42:19;;;;;;;3.60;2.00;;;;;;;;;;6215020;28;20186;-66
2023/10/09 04:45:59;;;;;;;3.27;2.13;;;;;;;;;;6214138;28;20224;-66
2023/10/09 04:48:45;;;;;;;3.80;2.00;;;;;;;;;;6228403;28;20208;-66
2023/10/09 04:52:04;;;;;;;3.87;1.80;;;14.70;77.60;;;;;;6206156;28;20204;-66
2023/10/09 04:58:23;;;;;;;3.67;2.07;;;10.80;86.30;;;;;;6211952;28;20184;-66
2023/10/09 05:01:35;;;;;;;2.50;1.77;;;10.90;86.20;;;;;;6197312;28;20188;-66
2023/10/09 05:04:41;;;;;;;3.23;2.23;;;10.90;85.50;;;;;;6191657;28;20245;-66
2023/10/09 05:07:57;;;;;;;3.17;2.17;;;10.80;85.40;;;;;;6185730;28;20242;-66
2023/10/09 05:14:12;;;;;;;2.83;2.00;;;10.70;85.30;;;;;;6217577;28;20194;-66
2023/10/09 05:17:15;;;;;;;4.30;1.90;;;10.80;85.40;;;;;;6205286;28;20195;-66
2023/10/09 05:23:26;;;;;;;4.90;1.73;;;10.80;85.00;;;;;;6206588;28;20237;-66
2023/10/09 05:26:50;;;;;;;2.67;2.00;;;10.70;84.80;;;;;;6217531;28;20183;-66
2023/10/09 05:30:33;;;;;;;3.43;1.70;;;10.70;84.70;;;;;;6211309;28;20194;-66
2023/10/09 05:33:33;;;;;;;3.13;1.80;;;10.70;84.90;;;;;;6212006;28;20231;-66
2023/10/09 05:36:35;;;;;;;5.83;2.10;;;10.70;85.50;;;;;;6194995;28;20190;-66
2023/10/09 05:39:42;;;;;;;2.93;2.00;;;10.70;85.30;;;;;;6189773;28;20201;-66
2023/10/09 05:42:43;;;;;;;4.70;1.77;;;10.70;85.20;;;;;;6196733;28;20252;-66
2023/10/09 05:46:07;;;;;;;2.40;1.70;;;10.70;84.90;;;;;;6212601;28;20199;-66
2023/10/09 05:49:19;;;;;;;3.93;2.03;;;10.70;85.20;;;;;;6205859;28;20198;-66
2023/10/09 06:05:41;;;;;;;1.60;1.50;;;10.80;84.50;;;;;;6211160;28;20278;-66
2023/10/09 06:11:54;;;;;;;2.27;1.87;;;10.80;85.10;;;;;;6228770;28;20210;-66
2023/10/09 06:15:04;;;;;;;2.30;2.10;;;10.80;85.50;;;;;;6197531;28;20199;-66
2023/10/09 06:27:58;;;;;;;3.50;2.53;;;10.90;86.10;;;;;;6197002;28;20186;-66
2023/10/09 06:31:27;;;;;;;4.03;1.83;;;11.00;85.90;;;;;;6192667;28;20211;-66
2023/10/09 06:34:22;;;;;;;3.63;1.90;;;11.00;85.90;;;;;;6223585;28;20251;-66
2023/10/09 06:43:42;;;;;;;3.93;1.97;;;11.10;85.80;;;;;;6218571;28;20212;-66
2023/10/09 06:46:52;;;;;;;3.33;1.67;;;11.10;85.60;;;;;;6199930;28;20198;-66
2023/10/09 07:03:13;;;;;;;4.43;2.27;;;11.30;85.50;;;;;;6181705;28;20234;-66
2023/10/09 07:06:48;;;;;;;4.93;2.33;;;11.30;85.60;;;;;;6205118;28;20190;-66
2023/10/09 07:13:06;;;;;;;2.90;1.90;;;11.40;85.10;;;;;;6229457;28;20191;-66
2023/10/09 07:16:28;;;;;;;2.67;2.30;;;11.50;85.30;;;;;;6204031;28;20187;-66
2023/10/09 07:22:53;;;;;;;5.03;2.97;;;11.70;84.50;;;;;;6227196;28;20210;-66
2023/10/09 07:26:18;;;;;;;4.37;3.07;;;11.70;83.60;;;;;;6206165;28;20295;-66
2023/10/09 07:29:23;;;;;;;5.70;2.87;;;11.90;83.60;;;;;;6216646;28;20202;-66
2023/10/09 07:32:27;;;;;;;3.57;2.53;;;11.90;84.00;;;;;;6227355;28;20215;-66
2023/10/09 07:38:45;;;;;;;4.03;2.60;;;12.00;82.90;;;;;;6231260;28;20187;-66
2023/10/09 07:41:56;;;;;;;5.23;3.03;;;12.10;82.80;;;;;;6197460;28;20223;-66
2023/10/09 07:44:57;;;;;;;3.57;3.00;;;12.20;81.70;;;;;;6204712;28;20214;-66
2023/10/09 07:48:05;;;;;;;6.70;2.87;;;12.20;81.50;;;;;;6192808;28;20190;-66
2023/10/09 07:51:12;;;;;;;5.93;2.67;;;12.20;82.10;;;;;;6211465;28;20199;-66
2023/10/09 07:54:31;;;;;;;4.13;2.63;;;12.30;81.20;;;;;;6197550;28;20196;-66
2023/10/09 07:57:38;;;;;;;4.93;2.57;;;12.20;80.40;;;;;;6199968;28;20277;-67
2023/10/09 08:04:01;;;;;;;3.50;2.33;;;12.50;77.90;;;;;;6223638;28;20196;-66
2023/10/09 08:07:06;;;;;;;4.23;2.00;;;12.50;78.20;;;;;;6192272;28;20191;-66
2023/10/09 08:14:01;;;;;;;2.80;2.20;;;;;;;;;;6241915;28;20278;-66
2023/10/09 08:16:42;;;;;;;2.17;1.90;;;;;;;;;;6207565;28;20233;-66
2023/10/09 08:19:54;;;;;;;4.70;2.47;;;;;;;;;;6211966;28;20198;-66
2023/10/09 08:22:58;;;;;;;4.27;2.50;;;;;;;;;;6221465;28;20222;-66
2023/10/09 08:26:17;;;;;;;3.33;1.90;;;12.70;75.70;;;;;;6229119;28;20190;-66
2023/10/09 08:29:19;;;;;;;4.90;2.13;;;13.20;73.30;;;;;;6211676;28;20195;-66
2023/10/09 08:32:38;;;;;;;4.23;2.27;;;13.30;73.90;;;;;;6214634;28;20191;-66
2023/10/09 08:35:47;;;;;;;5.77;2.57;;;13.40;73.30;;;;;;6216182;28;20193;-66
2023/10/09 08:38:48;;;;;;;3.43;2.00;;;13.40;73.00;;;;;;6196878;28;20207;-66
2023/10/09 08:41:51;;;;;;;3.47;2.67;;;13.40;73.10;;;;;;6194058;28;20207;-66
2023/10/09 08:44:54;;;;;;;4.57;2.17;;;13.50;72.80;;;;;;6190617;28;20180;-66
2023/10/09 08:47:56;;;;;;;3.57;2.37;;;13.60;73.70;;;;;;6194365;28;20183;-66
2023/10/09 08:50:56;;;;;;;4.40;2.10;;;13.70;73.20;;;;;;6189090;28;20191;-66
2023/10/09 08:53:57;;;;;;;3.40;1.77;;;13.80;73.80;;;;;;6188806;28;20195;-66
2023/10/09 08:56:58;;;;;;;4.00;2.47;;;13.90;72.40;;;;;;6213333;28;20186;-66
2023/10/09 09:00:00;;;;;;;3.07;2.27;;;13.90;71.90;;;;;;6205255;28;20223;-66
2023/10/09 09:03:01;;;;;;;2.57;2.13;;;;;;;;;;6186099;28;20262;-66
2023/10/09 09:06:02;;;;;;;2.90;2.27;;;;;;;;;;6210553;28;20187;-66
2023/10/09 09:09:13;;;;;;;4.13;2.20;;;;;;;;;;6208763;28;20195;-66
2023/10/09 09:12:15;;;;;;;3.63;2.20;;;;;;;;;;6208940;28;20197;-66
2023/10/09 09:15:21;;;;;;;4.20;2.17;;;;;;;;;;6197181;28;20194;-66
2023/10/09 09:18:22;;;;;;;3.63;2.30;;;;;;;;;;6203273;28;20187;-66
2023/10/09 09:21:23;;;;;;;3.10;2.10;;;;;;;;;;6199259;28;20220;-66
2023/10/09 09:24:31;;;;;;;4.13;2.30;;;;;;;;;;6202505;28;20232;-67
2023/10/09 09:27:52;;;;;;;4.47;2.07;;;;;;;;;;6204772;28;20234;-67
2023/10/09 09:30:55;;;;;;;3.10;1.70;;;;;;;;;;6208652;28;20199;-64
2023/10/09 09:33:58;;;;;;;2.63;2.07;;;;;;;;;;6202336;28;20202;-64
2023/10/09 09:37:03;;;;;;;4.00;2.73;;;;;;;;;;6230184;28;20206;-64
2023/10/09 09:40:41;;;;;;;3.20;2.37;;;;;;;;;;6217633;28;20194;-64
2023/10/09 09:43:35;;;;;;;10.43;2.77;;;;;;;;;;6215888;28;20208;-64
2023/10/09 09:46:37;;;;;;;3.20;2.03;;;;;;;;;;6207379;28;20228;-64
2023/10/09 09:49:40;;;;;;;4.77;2.50;;;;;;;;;;6189657;28;20204;-64
2023/10/09 09:52:42;;;;;;;4.07;2.07;;;;;;;;;;6217385;28;20185;-64
2023/10/09 09:55:51;;;;;;;4.07;2.10;;;;;;;;;;6205022;28;20198;-64
2023/10/09 09:58:53;;;;;;;3.80;2.40;;;;;;;;;;6221952;28;20263;-64
2023/10/09 10:02:06;;;;;;;3.00;2.57;;;;;;;;;;6228950;28;20293;-64
2023/10/09 10:05:11;;;;;;;4.37;2.90;;;;;;;;;;6232998;28;20240;-64
2023/10/09 10:08:19;;;;;;;4.20;3.00;;;;;;;;;;6221852;28;20179;-64
2023/10/09 10:11:40;;;;;;;5.20;2.80;;;;;;;;;;6223074;28;20180;-64
2023/10/09 10:14:52;;;;;;;4.97;2.93;;;;;;;;;;6213829;28;20275;-64
2023/10/09 10:17:59;;;;;;;3.90;2.77;;;;;;;;;;6223210;28;20227;-64
2023/10/09 10:21:14;;;;;;;6.33;2.77;;;;;;;;;;6218204;28;20236;-64
2023/10/09 10:25:32;;;;;;;3.73;2.87;;;;;;;;;;6221883;28;20255;-64
2023/10/09 10:28:42;;;;;;;2.90;2.00;;;;;;;;;;6232190;28;20183;-64
2023/10/09 10:31:54;;;;;;;4.10;2.53;;;;;;;;;;6214447;28;20195;-64
2023/10/09 10:34:55;;;;;;;4.33;2.47;;;;;;;;;;6207036;28;20191;-64
2023/10/09 10:41:16;;;;;;;5.57;3.17;;;;;;;;;;6223047;28;20221;-64
2023/10/09 10:44:34;;;;;;;6.67;2.97;;;;;;;;;;6226668;28;20185;-64
2023/10/09 10:47:35;;;;;;;3.93;2.73;;;;;;;;;;6230625;28;20186;-64
2023/10/09 10:50:36;;;;;;;5.60;3.07;;;;;;;;;;6228218;28;20182;-64
2023/10/09 10:53:49;;;;;;;8.57;3.47;;;;;;;;;;6223942;28;20187;-64
2023/10/09 10:56:51;;;;;;;6.47;3.30;;;;;;;;;;6200333;28;20229;-64
2023/10/09 11:00:03;;;;;;;8.10;3.17;;;;;;;;;;6198652;28;20195;-64
2023/10/09 11:03:55;;;;;;;9.57;3.03;;;;;;;;;;6204287;28;20207;-64
2023/10/09 11:06:36;;;;;;;4.13;2.43;;;;;;;;;;6210987;28;20196;-64
2023/10/09 11:16:28;;;;;;;15.03;7.60;;;;;;;;;;6231752;28;20222;-64
2023/10/09 11:19:32;;;;;;;7.03;4.03;;;;;;;;;;6223645;28;20214;-64
2023/10/09 11:22:38;;;;;;;6.43;2.87;;;;;;;;;;6216007;28;20211;-64
2023/10/09 11:25:50;;;;;;;3.40;2.20;;;;;;;;;;6224230;28;20223;-64
2023/10/09 11:32:22;;;;;;;4.53;2.60;;;;;;;;;;6244486;28;20192;-64
2023/10/09 11:35:34;;;;;;;4.00;2.67;;;;;;;;;;6226612;28;20195;-64
2023/10/09 11:38:39;;;;;;;4.77;2.60;;;;;;;;;;6198212;28;20196;-64
2023/10/09 11:41:44;;;;;;;3.93;2.63;;;;;;;;;;6210863;28;20207;-64
2023/10/09 11:44:46;;;;;;;4.77;2.43;;;;;;;;;;6208503;28;20190;-64
2023/10/09 11:47:58;;;;;;;3.77;2.37;;;;;;;;;;6203314;28;20194;-64
2023/10/09 11:54:08;;;;;;;4.43;2.33;;;;;;;;;;6249323;28;20199;-63
2023/10/09 11:57:09;;;;;;;5.63;3.10;;;;;;;;;;6204610;28;20194;-64
2023/10/09 12:00:24;;;;;;;5.23;2.87;;;;;;;;;;6209866;28;20206;-64
2023/10/09 12:03:29;;;;;;;7.07;2.40;;;;;;;;;;6204728;28;20222;-64
2023/10/09 12:06:32;;;;;;;4.83;2.40;;;;;;;;;;6226085;28;20179;-64
2023/10/09 12:09:37;;;;;;;5.43;2.80;;;;;;;;;;6207002;28;20206;-64
2023/10/09 12:12:39;;;;;;;5.07;2.60;;;;;;;;;;6213122;28;20203;-64
2023/10/09 12:15:41;;;;;;;6.93;2.50;;;;;;;;;;6216528;28;20191;-64
2023/10/09 12:18:42;;;;;;;3.10;2.53;;;;;;;;;;6233514;28;20186;-64
2023/10/09 12:21:43;;;;;;;7.20;3.13;;;;;;;;;;6208659;28;20211;-64
2023/10/09 12:24:45;;;;;;;4.17;2.47;;;;;;;;;;6206960;28;20234;-64
2023/10/09 12:27:47;;;;;;;4.47;2.43;;;;;;;;;;6195359;28;20201;-64
2023/10/09 12:30:51;;;;;;;5.97;2.40;;;;;;;;;;6208420;28;20191;-64
2023/10/09 12:33:52;;;;;;;6.50;3.07;;;;;;;;;;6221400;28;20185;-65
2023/10/09 12:36:54;;;;;;;4.53;2.17;;;;;;;;;;6205137;28;20196;-65
2023/10/09 12:39:57;;;;;;;4.00;2.20;;;;;;;;;;6223974;28;20193;-65
2023/10/09 12:43:01;;;;;;;6.10;2.70;;;;;;;;;;6211266;28;20260;-69
2023/10/09 12:46:06;;;;;;;6.03;2.50;;;;;;;;;;6226165;28;20209;-68
2023/10/09 12:49:07;;;;;;;4.00;2.00;;;;;;;;;;6231370;28;20193;-70
2023/10/09 12:52:18;;;;;;;5.60;2.40;;;;;;;;;;6230653;28;20186;-67
2023/10/09 12:55:21;;;;;;;2.93;1.93;;;;;;;;;;6212358;28;20197;-67
2023/10/09 12:58:22;;;;;;;6.07;2.53;;;;;;;;;;6225173;28;20194;-67
2023/10/09 13:01:23;;;;;;;3.80;2.03;;;;;;;;;;6212046;28;20297;-67
2023/10/09 13:04:31;;;;;;;5.97;2.50;;;;;;;;;;6209926;28;20198;-66
2023/10/09 13:07:33;;;;;;;5.93;2.40;;;;;;;;;;6214542;28;20179;-67
2023/10/09 13:10:37;;;;;;;6.80;2.53;;;;;;;;;;6223310;28;20333;-67
2023/10/09 13:13:40;;;;;;;5.90;2.00;;;;;;;;;;6215286;28;20196;-66
2023/10/09 13:16:41;;;;;;;3.50;1.97;;;;;;;;;;6198192;28;20214;-67
2023/10/09 13:19:43;;;;;;;13.40;5.90;;;;;;;;;;6212363;28;20205;-66
2023/10/09 13:22:47;;;;;;;31.27;11.57;;;;;;;;;;6208030;28;20267;-67
2023/10/09 13:25:48;;;;;;;11.00;4.10;;;;;;;;;;6224825;28;20266;-66
2023/10/09 13:28:50;;;;;;;5.60;2.50;;;;;;;;;;6206818;28;20186;-67
2023/10/09 13:31:57;;;;;;;6.90;3.20;;;;;;;;;;6225943;28;20187;-67
2023/10/09 13:35:01;;;;;;;16.80;6.00;;;;;;;;;;6233955;28;20186;-66
2023/10/09 13:38:07;;;;;;;13.67;5.53;;;;;;;;;;6214939;28;20297;-67
2023/10/09 13:41:12;;;;;;;14.40;5.67;;;;;;;;;;6212344;28;20215;-66
2023/10/09 13:44:13;;;;;;;9.97;5.33;;;;;;;;;;6214676;28;20187;-66
2023/10/09 13:47:19;;;;;;;5.80;2.73;;;;;;;;;;6230183;28;20182;-66
2023/10/09 13:50:21;;;;;;;11.97;2.43;;;;;;;;;;6209776;28;20184;-66
2023/10/09 13:53:26;;;;;;;17.73;8.17;;;;;;;;;;6215935;28;20195;-66
2023/10/09 13:56:27;;;;;;;12.83;5.73;;;;;;;;;;6229358;28;20187;-67
2023/10/09 13:59:29;;;;;;;5.00;3.47;;;;;;;;;;6218264;28;20193;-67
2023/10/09 14:02:30;;;;;;;5.77;2.70;;;;;;;;;;6213701;28;20304;-67
2023/10/09 14:05:31;;;;;;;4.83;2.87;;;;;;;;;;6219008;28;20190;-67
2023/10/09 14:08:32;;;;;;;3.97;1.93;;;;;;;;;;6214917;28;20189;-66
2023/10/09 14:11:37;;;;;;;7.43;3.63;;;;;;;;;;6211108;28;20194;-66
2023/10/09 14:14:46;;;;;;;4.80;2.93;;;;;;;;;;6208864;28;20200;-66
2023/10/09 14:17:55;;;;;;;5.83;2.80;;;;;;;;;;6227655;28;20273;-66
2023/10/09 14:20:56;;;;;;;5.57;2.10;;;;;;;;;;6222542;28;20194;-66
2023/10/09 14:23:58;;;;;;;25.80;7.73;;;;;;;;;;6206530;28;20241;-66
2023/10/09 14:27:03;;;;;;;17.63;6.83;;;;;;;;;;6214763;28;20186;-66
2023/10/09 14:30:12;;;;;;;10.03;3.87;;;;;;;;;;6223759;28;20237;-65
2023/10/09 14:33:13;;;;;;;8.23;3.30;;;;;;;;;;6210189;28;20195;-66
2023/10/09 14:36:16;;;;;;;5.80;2.97;;;;;;;;;;6224696;28;20269;-65
2023/10/09 14:39:19;;;;;;;7.27;2.13;;;;;;;;;;6214719;28;20186;-65
2023/10/09 14:42:22;;;;;;;5.00;2.47;;;;;;;;;;6205571;28;20216;-65
2023/10/09 14:45:27;;;;;;;4.73;2.37;;;;;;;;;;6224576;28;20179;-65
2023/10/09 14:48:28;;;;;;;5.67;2.37;;;;;;;;;;6220555;28;20183;-65
2023/10/09 14:51:30;;;;;;;5.00;2.57;;;;;;;;;;6230449;28;20197;-66
2023/10/09 14:54:31;;;;;;;10.10;2.63;;;;;;;;;;6215539;28;20221;-66
2023/10/09 14:57:33;;;;;;;5.00;2.50;;;;;;;;;;6213639;28;20290;-65
2023/10/09 15:00:34;;;;;;;9.10;2.30;;;;;;;;;;6216079;28;20281;-66
2023/10/09 15:03:37;;;;;;;4.13;2.30;;;;;;;;;;6221462;28;20311;-66
2023/10/09 15:06:38;;;;;;;4.77;2.30;;;;;;;;;;6206101;28;20218;-66
2023/10/09 15:09:41;;;;;;;4.43;2.60;;;;;;;;;;6214534;28;20210;-66
2023/10/09 15:12:48;;;;;;;8.03;3.73;;;;;;;;;;6215191;28;20282;-67
2023/10/09 15:15:51;;;;;;;9.70;4.80;;;;;;;;;;6206857;28;20224;-66
2023/10/09 15:18:52;;;;;;;6.20;3.63;;;;;;;;;;6216939;28;20213;-67
2023/10/09 15:21:53;;;;;;;4.27;2.93;;;;;;;;;;6199966;28;20223;-67
2023/10/09 15:24:54;;;;;;;6.03;2.90;;;;;;;;;;6209672;28;20250;-66
2023/10/09 15:27:57;;;;;;;15.00;5.67;;;;;;;;;;6209368;28;20279;-67
2023/10/09 15:30:59;;;;;;;8.70;3.83;;;;;;;;;;6226032;28;20198;-67
2023/10/09 15:34:00;;;;;;;7.87;3.40;;;;;;;;;;6225782;28;20194;-66
2023/10/09 15:37:03;;;;;;;7.40;2.80;;;;;;;;;;6207254;28;20197;-66
2023/10/09 15:40:14;;;;;;;6.50;2.77;;;;;;;;;;6226974;28;20214;-66
2023/10/09 15:43:16;;;;;;;3.57;2.63;;;;;;;;;;6226274;28;20215;-66
2023/10/09 15:46:17;;;;;;;5.87;2.70;;;;;;;;;;6213782;28;20213;-66
2023/10/09 15:49:18;;;;;;;4.37;2.50;;;;;;;;;;6200909;28;20222;-65
2023/10/09 15:52:20;;;;;;;5.40;3.13;;;;;;;;;;6215526;28;20189;-66
2023/10/09 15:55:24;;;;;;;3.17;2.33;;;;;;;;;;6216430;28;20202;-66
2023/10/09 15:58:25;;;;;;;5.93;3.83;;;;;;;;;;6223532;28;20195;-66
2023/10/09 16:01:26;;;;;;;4.13;3.17;;;;;;;;;;6214140;28;20221;-66
2023/10/09 16:04:27;;;;;;;5.87;3.70;;;;;;;;;;6229558;28;20236;-65
2023/10/09 16:07:29;;;;;;;6.20;3.60;;;;;;;;;;6202387;28;20192;-65
2023/10/09 16:10:34;;;;;;;6.63;3.53;;;;;;;;;;6209482;28;20219;-65
2023/10/09 16:13:38;;;;;;;11.37;5.80;;;;;;;;;;6211565;28;20195;-64
2023/10/09 16:16:41;;;;;;;31.53;16.37;;;;;;;;;;6219906;28;20191;-65
2023/10/09 16:19:42;;;;;;;22.43;12.50;;;;;;;;;;6209835;28;20223;-66
2023/10/09 16:22:45;;;;;;;14.57;5.90;;;;;;;;;;6205492;28;20215;-65
2023/10/09 16:25:46;;;;;;;9.47;5.47;;;;;;;;;;6211934;28;20262;-68
2023/10/09 16:28:48;;;;;;;16.63;6.13;;;;;;;;;;6209753;28;20195;-68
2023/10/09 16:31:51;;;;;;;15.83;7.53;;;;;;;;;;6204953;28;20222;-68
2023/10/09 16:34:53;;;;;;;15.17;7.27;;;;;;;;;;6206223;28;20195;-66
2023/10/09 16:37:54;;;;;;;8.27;4.07;;;;;;;;;;6208456;28;20197;-65
2023/10/09 16:40:55;;;;;;;11.77;4.93;;;;;;;;;;6212886;28;20190;-67
2023/10/09 16:43:58;;;;;;;4.97;3.47;;;;;;;;;;6231598;28;20194;-67
2023/10/09 16:47:00;;;;;;;8.83;3.97;;;;;;;;;;6205372;28;20197;-67
2023/10/09 16:50:01;;;;;;;5.03;3.10;;;;;;;;;;6211038;28;20192;-66
2023/10/09 16:53:03;;;;;;;4.03;2.93;;;;;;;;;;6206058;28;20267;-65
2023/10/09 16:56:10;;;;;;;7.93;3.13;;;;;;;;;;6228615;28;20195;-65
2023/10/09 16:59:15;;;;;;;21.20;7.23;;;;;;;;;;6223180;28;20210;-64
2023/10/09 17:02:22;;;;;;;15.93;5.43;;;;;;;;;;6222077;28;20223;-64
2023/10/09 17:05:33;;;;;;;7.60;4.20;;;;;;;;;;6204028;28;20206;-64
2023/10/09 17:08:39;;;;;;;12.10;6.50;;;;;;;;;;6221880;28;20270;-66
2023/10/09 17:11:40;;;;;;;6.60;4.63;;;;;;;;;;6210958;28;20203;-66
2023/10/09 17:14:42;;;;;;;7.10;4.60;;;;;;;;;;6214176;28;20243;-66
2023/10/09 17:17:49;;;;;;;8.27;4.40;;;;;;;;;;6208254;28;20194;-65
2023/10/09 17:20:51;;;;;;;6.00;4.50;;;;;;;;;;6227895;28;20248;-66
2023/10/09 17:23:58;;;;;;;7.13;4.93;;;;;;;;;;6201476;28;20249;-67
2023/10/09 17:26:59;;;;;;;5.13;3.70;;;;;;;;;;6227443;28;20194;-67
2023/10/09 17:30:00;;;;;;;47.87;27.87;;;;;;;;;;6202979;28;20199;-66
2023/10/09 17:33:03;;;;;;;24.43;14.90;;;;;;;;;;6215396;28;20207;-65
2023/10/09 17:36:08;;;;;;;16.83;8.73;;;;;;;;;;6207357;28;20249;-65
2023/10/09 17:39:12;;;;;;;8.00;5.30;;;;;;;;;;6219372;28;20199;-65
2023/10/09 17:42:17;;;;;;;5.87;4.70;;;;;;;;;;6195368;28;20289;-65
2023/10/09 17:45:23;;;;;;;7.37;4.43;;;;;;;;;;6215342;28;20274;-65
2023/10/09 17:48:25;;;;;;;7.63;5.17;;;;;;;;;;6207859;28;20224;-65
2023/10/09 17:51:26;;;;;;;8.83;5.13;;;;;;;;;;6216949;28;20193;-66
2023/10/09 17:54:28;;;;;;;6.77;3.87;;;;;;;;;;6206130;28;20199;-65
2023/10/09 17:57:30;;;;;;;7.93;3.50;;;;;;;;;;6202209;28;20196;-66
2023/10/09 18:00:34;;;;;;;5.83;4.03;;;;;;;;;;6211969;28;20194;-66
2023/10/09 18:03:40;;;;;;;6.67;3.80;;;;;;;;;;6221880;28;20215;-66
2023/10/09 18:06:43;;;;;;;6.57;3.83;;;;;;;;;;6208172;28;20206;-65
2023/10/09 18:09:51;;;;;;;9.00;6.20;;;;;;;;;;6229786;28;20241;-66
2023/10/09 18:12:53;;;;;;;18.23;12.47;;;;;;;;;;6231088;28;20187;-65
2023/10/09 18:16:09;;;;;;;6.50;4.57;;;;;;;;;;6209081;28;20211;-65
2023/10/09 18:19:14;;;;;;;5.50;3.67;;;;;;;;;;6238864;28;20345;-65
2023/10/09 18:22:15;;;;;;;5.10;3.07;;;;;;;;;;6229870;28;20209;-65
2023/10/09 18:25:17;;;;;;;5.97;3.07;;;;;;;;;;6207330;28;20338;-65
2023/10/09 18:28:19;;;;;;;7.33;3.53;;;;;;;;;;6222260;28;20189;-65
2023/10/09 18:31:20;;;;;;;7.07;3.87;;;;;;;;;;6219006;28;20206;-67
2023/10/09 18:34:25;;;;;;;6.07;3.57;;;;;;;;;;6209319;28;20353;-65
2023/10/09 18:37:27;;;;;;;7.47;3.83;;;;;;;;;;6232413;28;20205;-65
2023/10/09 18:40:31;;;;;;;6.33;3.50;;;;;;;;;;6213634;28;20211;-66
2023/10/09 18:43:34;;;;;;;5.73;4.03;;;;;;;;;;6235302;28;20211;-65
2023/10/09 18:46:37;;;;;;;6.47;4.97;;;;;;;;;;6217434;28;20196;-65
2023/10/09 18:49:39;;;;;;;8.90;5.13;;;;;;;;;;6208142;28;20250;-65
2023/10/09 18:52:44;;;;;;;8.40;4.93;;;;;;;;;;6216883;28;20250;-65
2023/10/09 18:55:48;;;;;;;6.70;3.93;;;;;;;;;;6218019;28;20227;-65
2023/10/09 18:58:50;;;;;;;6.20;4.13;;;;;;;;;;6219881;28;20214;-65
2023/10/09 19:01:52;;;;;;;4.93;4.10;;;;;;;;;;6233650;28;20219;-65
2023/10/09 19:04:54;;;;;;;6.43;3.67;;;;;;;;;;6231802;28;20192;-64
2023/10/09 19:07:56;;;;;;;5.53;3.73;;;;;;;;;;6215473;28;20329;-64
2023/10/09 19:11:01;;;;;;;9.10;3.77;;;;;;;;;;6218050;28;20188;-65
2023/10/09 19:14:02;;;;;;;7.17;3.67;;;;;;;;;;6231287;28;20193;-65
2023/10/09 19:17:05;;;;;;;9.43;3.97;;;;;;;;;;6218975;28;20191;-68
2023/10/09 19:20:10;;;;;;;4.73;3.87;;;;;;;;;;6241492;28;20192;-67
2023/10/09 19:23:11;;;;;;;7.53;4.03;;;;;;;;;;6231263;28;20229;-67
2023/10/09 19:26:14;;;;;;;6.20;4.13;;;;;;;;;;6209811;28;20192;-65
2023/10/09 19:29:15;;;;;;;7.20;3.83;;;;;;;;;;6228840;28;20182;-66
2023/10/09 19:32:17;;;;;;;6.90;4.07;;;;;;;;;;6211713;28;20204;-66
2023/10/09 19:35:18;;;;;;;9.17;4.57;;;;;;;;;;6222904;28;20206;-66
2023/10/09 19:38:19;;;;;;;5.87;3.90;;;;;;;;;;6213737;28;20285;-66
2023/10/09 19:41:22;;;;;;;4.93;3.83;;;;;;;;;;6217190;28;20315;-66
2023/10/09 19:44:23;;;;;;;4.97;3.63;;;16.40;66.00;;;;;;6226891;28;20200;-66
2023/10/09 19:47:25;;;;;;;7.63;4.07;;;14.20;87.60;;;;;;6189504;28;20187;-66
2023/10/09 19:50:26;;;;;;;6.07;3.30;;;14.10;87.90;;;;;;6209891;28;20211;-66
2023/10/09 19:53:29;;;;;;;4.50;3.60;;;14.10;87.80;;;;;;6208803;28;20208;-66